sensor_id;sensor_type;location;lat;lon;timestamp;P1;durP1;ratioP1;P2;durP2;ratioP2
65373;SDS011;52070;53.760;9.678;2023-04-25T00:00:48;22.35;;;3.30;;
65373;SDS011;52070;53.760;9.678;2023-04-25T00:03:15;25.65;;;3.95;;
65373;SDS011;52070;53.760;9.678;2023-04-25T00:05:43;14.75;;;3.00;;
65373;SDS011;52070;53.760;9.678;2023-04-25T00:08:10;20.30;;;3.88;;
65373;SDS011;52070;53.760;9.678;2023-04-25T00:10:37;49.00;;;5.13;;
65373;SDS011;52070;53.760;9.678;2023-04-25T00:13:04;16.80;;;3.10;;
65373;SDS011;52070;53.760;9.678;2023-04-25T00:15:31;28.95;;;3.33;;
65373;SDS011;52070;53.760;9.678;2023-04-25T00:18:00;23.52;;;3.25;;
65373;SDS011;52070;53.760;9.678;2023-04-25T00:20:26;26.02;;;3.75;;
65373;SDS011;52070;53.760;9.678;2023-04-25T00:22:53;21.48;;;2.88;;
65373;SDS011;52070;53.760;9.678;2023-04-25T00:25:21;21.52;;;3.03;;
65373;SDS011;52070;53.760;9.678;2023-04-25T00:27:48;24.60;;;3.45;;
65373;SDS011;52070;53.760;9.678;2023-04-25T00:30:14;21.55;;;3.30;;
65373;SDS011;52070;53.760;9.678;2023-04-25T00:32:41;20.60;;;3.08;;
65373;SDS011;52070;53.760;9.678;2023-04-25T00:35:10;23.58;;;3.35;;
65373;SDS011;52070;53.760;9.678;2023-04-25T00:37:37;15.40;;;3.13;;
65373;SDS011;52070;53.760;9.678;2023-04-25T00:40:04;23.92;;;3.30;;
65373;SDS011;52070;53.760;9.678;2023-04-25T00:42:33;26.58;;;4.13;;
65373;SDS011;52070;53.760;9.678;2023-04-25T00:45:01;25.05;;;3.95;;
65373;SDS011;52070;53.760;9.678;2023-04-25T00:47:30;24.58;;;3.60;;
65373;SDS011;52070;53.760;9.678;2023-04-25T00:49:59;21.02;;;3.47;;
65373;SDS011;52070;53.760;9.678;2023-04-25T00:52:27;26.20;;;3.70;;
65373;SDS011;52070;53.760;9.678;2023-04-25T00:54:54;25.88;;;4.20;;
65373;SDS011;52070;53.760;9.678;2023-04-25T00:57:21;27.77;;;4.63;;
65373;SDS011;52070;53.760;9.678;2023-04-25T00:59:48;23.17;;;3.63;;
65373;SDS011;52070;53.760;9.678;2023-04-25T01:02:17;35.67;;;4.72;;
65373;SDS011;52070;53.760;9.678;2023-04-25T01:04:46;27.15;;;4.30;;
65373;SDS011;52070;53.760;9.678;2023-04-25T01:07:14;22.60;;;3.70;;
65373;SDS011;52070;53.760;9.678;2023-04-25T01:09:42;30.92;;;3.85;;
65373;SDS011;52070;53.760;9.678;2023-04-25T01:12:09;22.17;;;3.55;;
65373;SDS011;52070;53.760;9.678;2023-04-25T01:14:37;21.70;;;3.97;;
65373;SDS011;52070;53.760;9.678;2023-04-25T01:17:04;23.70;;;3.75;;
65373;SDS011;52070;53.760;9.678;2023-04-25T01:19:33;26.52;;;3.38;;
65373;SDS011;52070;53.760;9.678;2023-04-25T01:22:01;20.23;;;3.70;;
65373;SDS011;52070;53.760;9.678;2023-04-25T01:24:29;21.48;;;3.83;;
65373;SDS011;52070;53.760;9.678;2023-04-25T01:26:56;20.25;;;3.22;;
65373;SDS011;52070;53.760;9.678;2023-04-25T01:29:24;26.27;;;3.45;;
65373;SDS011;52070;53.760;9.678;2023-04-25T01:31:51;22.67;;;3.25;;
65373;SDS011;52070;53.760;9.678;2023-04-25T01:34:19;24.35;;;3.58;;
65373;SDS011;52070;53.760;9.678;2023-04-25T01:36:46;24.25;;;3.22;;
65373;SDS011;52070;53.760;9.678;2023-04-25T01:39:16;20.63;;;3.65;;
65373;SDS011;52070;53.760;9.678;2023-04-25T01:41:44;22.65;;;3.60;;
65373;SDS011;52070;53.760;9.678;2023-04-25T01:44:12;23.02;;;3.53;;
65373;SDS011;52070;53.760;9.678;2023-04-25T01:46:39;22.67;;;3.33;;
65373;SDS011;52070;53.760;9.678;2023-04-25T01:49:06;18.58;;;2.83;;
65373;SDS011;52070;53.760;9.678;2023-04-25T01:51:33;23.60;;;3.28;;
65373;SDS011;52070;53.760;9.678;2023-04-25T01:54:00;30.95;;;3.38;;
65373;SDS011;52070;53.760;9.678;2023-04-25T01:56:31;30.02;;;3.10;;
65373;SDS011;52070;53.760;9.678;2023-04-25T01:58:58;21.20;;;3.25;;
65373;SDS011;52070;53.760;9.678;2023-04-25T02:01:25;24.63;;;2.95;;
65373;SDS011;52070;53.760;9.678;2023-04-25T02:03:52;20.42;;;3.47;;
65373;SDS011;52070;53.760;9.678;2023-04-25T02:06:19;16.30;;;3.42;;
65373;SDS011;52070;53.760;9.678;2023-04-25T02:08:46;23.63;;;3.42;;
65373;SDS011;52070;53.760;9.678;2023-04-25T02:11:13;20.58;;;3.45;;
65373;SDS011;52070;53.760;9.678;2023-04-25T02:13:41;21.30;;;3.47;;
65373;SDS011;52070;53.760;9.678;2023-04-25T02:16:08;24.42;;;3.28;;
65373;SDS011;52070;53.760;9.678;2023-04-25T02:18:35;22.15;;;3.72;;
65373;SDS011;52070;53.760;9.678;2023-04-25T02:21:02;30.48;;;3.72;;
65373;SDS011;52070;53.760;9.678;2023-04-25T02:23:29;21.95;;;3.22;;
65373;SDS011;52070;53.760;9.678;2023-04-25T02:25:57;20.02;;;3.08;;
65373;SDS011;52070;53.760;9.678;2023-04-25T02:28:24;20.23;;;3.03;;
65373;SDS011;52070;53.760;9.678;2023-04-25T02:30:52;21.95;;;3.30;;
65373;SDS011;52070;53.760;9.678;2023-04-25T02:33:19;18.17;;;3.53;;
65373;SDS011;52070;53.760;9.678;2023-04-25T02:35:46;20.15;;;2.67;;
65373;SDS011;52070;53.760;9.678;2023-04-25T02:38:14;26.63;;;2.90;;
65373;SDS011;52070;53.760;9.678;2023-04-25T02:40:41;24.25;;;3.45;;
65373;SDS011;52070;53.760;9.678;2023-04-25T02:43:07;23.77;;;3.25;;
65373;SDS011;52070;53.760;9.678;2023-04-25T02:45:34;22.33;;;3.00;;
65373;SDS011;52070;53.760;9.678;2023-04-25T02:48:03;25.33;;;3.63;;
65373;SDS011;52070;53.760;9.678;2023-04-25T02:50:30;21.98;;;4.22;;
65373;SDS011;52070;53.760;9.678;2023-04-25T02:52:57;22.15;;;3.50;;
65373;SDS011;52070;53.760;9.678;2023-04-25T02:55:24;30.63;;;3.33;;
65373;SDS011;52070;53.760;9.678;2023-04-25T02:57:51;20.13;;;2.83;;
65373;SDS011;52070;53.760;9.678;2023-04-25T03:00:20;21.13;;;3.08;;
65373;SDS011;52070;53.760;9.678;2023-04-25T03:02:47;24.17;;;3.10;;
65373;SDS011;52070;53.760;9.678;2023-04-25T03:05:16;20.23;;;3.42;;
65373;SDS011;52070;53.760;9.678;2023-04-25T03:07:43;24.10;;;3.22;;
65373;SDS011;52070;53.760;9.678;2023-04-25T03:10:11;26.83;;;3.78;;
65373;SDS011;52070;53.760;9.678;2023-04-25T03:12:38;19.50;;;2.88;;
65373;SDS011;52070;53.760;9.678;2023-04-25T03:15:05;20.05;;;3.30;;
65373;SDS011;52070;53.760;9.678;2023-04-25T03:17:33;28.13;;;3.58;;
65373;SDS011;52070;53.760;9.678;2023-04-25T03:20:00;22.77;;;3.22;;
65373;SDS011;52070;53.760;9.678;2023-04-25T03:22:30;19.02;;;2.55;;
65373;SDS011;52070;53.760;9.678;2023-04-25T03:24:57;20.35;;;2.28;;
65373;SDS011;52070;53.760;9.678;2023-04-25T03:27:24;14.45;;;2.20;;
65373;SDS011;52070;53.760;9.678;2023-04-25T03:29:51;26.95;;;2.83;;
65373;SDS011;52070;53.760;9.678;2023-04-25T03:32:18;22.50;;;2.75;;
65373;SDS011;52070;53.760;9.678;2023-04-25T03:34:45;19.30;;;2.90;;
65373;SDS011;52070;53.760;9.678;2023-04-25T03:37:12;14.65;;;2.28;;
65373;SDS011;52070;53.760;9.678;2023-04-25T03:39:40;21.52;;;3.22;;
65373;SDS011;52070;53.760;9.678;2023-04-25T03:42:07;17.23;;;2.72;;
65373;SDS011;52070;53.760;9.678;2023-04-25T03:44:34;18.80;;;2.50;;
65373;SDS011;52070;53.760;9.678;2023-04-25T03:47:01;24.20;;;2.50;;
65373;SDS011;52070;53.760;9.678;2023-04-25T03:49:27;14.55;;;2.30;;
65373;SDS011;52070;53.760;9.678;2023-04-25T03:51:54;17.85;;;2.70;;
65373;SDS011;52070;53.760;9.678;2023-04-25T03:54:21;11.65;;;2.00;;
65373;SDS011;52070;53.760;9.678;2023-04-25T03:56:49;22.20;;;3.25;;
65373;SDS011;52070;53.760;9.678;2023-04-25T03:59:16;27.58;;;3.33;;
65373;SDS011;52070;53.760;9.678;2023-04-25T04:01:43;13.95;;;2.97;;
65373;SDS011;52070;53.760;9.678;2023-04-25T04:04:10;14.07;;;2.25;;
65373;SDS011;52070;53.760;9.678;2023-04-25T04:06:37;17.30;;;2.30;;
65373;SDS011;52070;53.760;9.678;2023-04-25T04:09:04;8.82;;;2.20;;
65373;SDS011;52070;53.760;9.678;2023-04-25T04:11:35;15.93;;;2.28;;
65373;SDS011;52070;53.760;9.678;2023-04-25T04:14:05;8.70;;;2.17;;
65373;SDS011;52070;53.760;9.678;2023-04-25T04:16:32;13.70;;;2.38;;
65373;SDS011;52070;53.760;9.678;2023-04-25T04:18:59;20.60;;;2.20;;
65373;SDS011;52070;53.760;9.678;2023-04-25T04:21:26;17.55;;;2.08;;
65373;SDS011;52070;53.760;9.678;2023-04-25T04:23:53;19.50;;;2.88;;
65373;SDS011;52070;53.760;9.678;2023-04-25T04:26:20;18.73;;;3.22;;
65373;SDS011;52070;53.760;9.678;2023-04-25T04:28:49;15.98;;;2.35;;
65373;SDS011;52070;53.760;9.678;2023-04-25T04:31:18;20.55;;;3.05;;
65373;SDS011;52070;53.760;9.678;2023-04-25T04:33:45;12.50;;;2.33;;
65373;SDS011;52070;53.760;9.678;2023-04-25T04:36:12;12.50;;;2.30;;
65373;SDS011;52070;53.760;9.678;2023-04-25T04:38:39;13.52;;;2.15;;
65373;SDS011;52070;53.760;9.678;2023-04-25T04:41:07;19.85;;;2.45;;
65373;SDS011;52070;53.760;9.678;2023-04-25T04:43:34;20.73;;;3.05;;
65373;SDS011;52070;53.760;9.678;2023-04-25T04:46:02;21.17;;;2.83;;
65373;SDS011;52070;53.760;9.678;2023-04-25T04:48:32;13.75;;;2.33;;
65373;SDS011;52070;53.760;9.678;2023-04-25T04:50:59;19.83;;;2.58;;
65373;SDS011;52070;53.760;9.678;2023-04-25T04:53:26;13.35;;;2.15;;
65373;SDS011;52070;53.760;9.678;2023-04-25T04:55:54;13.32;;;2.30;;
65373;SDS011;52070;53.760;9.678;2023-04-25T04:58:21;23.17;;;2.83;;
65373;SDS011;52070;53.760;9.678;2023-04-25T05:00:49;12.93;;;1.90;;
65373;SDS011;52070;53.760;9.678;2023-04-25T05:03:16;15.10;;;2.05;;
65373;SDS011;52070;53.760;9.678;2023-04-25T05:05:44;13.52;;;2.20;;
65373;SDS011;52070;53.760;9.678;2023-04-25T05:08:11;11.55;;;2.08;;
65373;SDS011;52070;53.760;9.678;2023-04-25T05:10:38;10.57;;;2.00;;
65373;SDS011;52070;53.760;9.678;2023-04-25T05:13:05;12.02;;;2.35;;
65373;SDS011;52070;53.760;9.678;2023-04-25T05:15:32;15.70;;;2.60;;
65373;SDS011;52070;53.760;9.678;2023-04-25T05:17:59;15.77;;;1.95;;
65373;SDS011;52070;53.760;9.678;2023-04-25T05:20:26;14.07;;;2.40;;
65373;SDS011;52070;53.760;9.678;2023-04-25T05:22:55;19.60;;;2.78;;
65373;SDS011;52070;53.760;9.678;2023-04-25T05:25:22;9.63;;;2.53;;
65373;SDS011;52070;53.760;9.678;2023-04-25T05:27:49;16.20;;;2.70;;
65373;SDS011;52070;53.760;9.678;2023-04-25T05:30:16;13.10;;;2.45;;
65373;SDS011;52070;53.760;9.678;2023-04-25T05:32:43;17.33;;;2.33;;
65373;SDS011;52070;53.760;9.678;2023-04-25T05:35:12;13.38;;;2.47;;
65373;SDS011;52070;53.760;9.678;2023-04-25T05:37:39;15.15;;;2.40;;
65373;SDS011;52070;53.760;9.678;2023-04-25T05:40:08;13.40;;;2.42;;
65373;SDS011;52070;53.760;9.678;2023-04-25T05:42:35;22.25;;;2.85;;
65373;SDS011;52070;53.760;9.678;2023-04-25T05:45:02;12.32;;;2.42;;
65373;SDS011;52070;53.760;9.678;2023-04-25T05:47:30;14.32;;;2.25;;
65373;SDS011;52070;53.760;9.678;2023-04-25T05:49:57;13.18;;;2.40;;
65373;SDS011;52070;53.760;9.678;2023-04-25T05:52:24;18.75;;;2.00;;
65373;SDS011;52070;53.760;9.678;2023-04-25T05:54:51;14.70;;;2.10;;
65373;SDS011;52070;53.760;9.678;2023-04-25T05:57:21;9.55;;;2.25;;
65373;SDS011;52070;53.760;9.678;2023-04-25T05:59:48;23.17;;;2.38;;
65373;SDS011;52070;53.760;9.678;2023-04-25T06:02:15;10.15;;;2.03;;
65373;SDS011;52070;53.760;9.678;2023-04-25T06:04:43;14.38;;;2.20;;
65373;SDS011;52070;53.760;9.678;2023-04-25T06:07:10;16.20;;;2.22;;
65373;SDS011;52070;53.760;9.678;2023-04-25T06:09:37;18.20;;;2.70;;
65373;SDS011;52070;53.760;9.678;2023-04-25T06:12:05;17.55;;;2.70;;
65373;SDS011;52070;53.760;9.678;2023-04-25T06:14:33;14.50;;;2.50;;
65373;SDS011;52070;53.760;9.678;2023-04-25T06:17:00;19.80;;;2.63;;
65373;SDS011;52070;53.760;9.678;2023-04-25T06:19:31;20.70;;;2.75;;
65373;SDS011;52070;53.760;9.678;2023-04-25T06:21:59;11.90;;;2.55;;
65373;SDS011;52070;53.760;9.678;2023-04-25T06:24:26;15.75;;;2.83;;
65373;SDS011;52070;53.760;9.678;2023-04-25T06:26:53;15.77;;;2.78;;
65373;SDS011;52070;53.760;9.678;2023-04-25T06:29:20;19.98;;;2.80;;
65373;SDS011;52070;53.760;9.678;2023-04-25T06:31:48;17.63;;;2.03;;
65373;SDS011;52070;53.760;9.678;2023-04-25T06:34:16;11.02;;;1.77;;
65373;SDS011;52070;53.760;9.678;2023-04-25T06:36:43;12.30;;;2.33;;
65373;SDS011;52070;53.760;9.678;2023-04-25T06:39:10;16.10;;;2.55;;
65373;SDS011;52070;53.760;9.678;2023-04-25T06:41:37;12.45;;;2.17;;
65373;SDS011;52070;53.760;9.678;2023-04-25T06:44:04;8.90;;;1.77;;
65373;SDS011;52070;53.760;9.678;2023-04-25T06:46:31;16.40;;;1.83;;
65373;SDS011;52070;53.760;9.678;2023-04-25T06:48:59;11.32;;;1.80;;
65373;SDS011;52070;53.760;9.678;2023-04-25T06:51:26;11.15;;;2.15;;
65373;SDS011;52070;53.760;9.678;2023-04-25T06:53:55;11.63;;;2.10;;
65373;SDS011;52070;53.760;9.678;2023-04-25T06:56:22;10.15;;;1.80;;
65373;SDS011;52070;53.760;9.678;2023-04-25T06:58:49;15.88;;;1.92;;
65373;SDS011;52070;53.760;9.678;2023-04-25T07:01:16;13.77;;;1.80;;
65373;SDS011;52070;53.760;9.678;2023-04-25T07:03:43;13.10;;;1.95;;
65373;SDS011;52070;53.760;9.678;2023-04-25T07:06:11;9.13;;;1.65;;
65373;SDS011;52070;53.760;9.678;2023-04-25T07:08:38;13.23;;;1.90;;
65373;SDS011;52070;53.760;9.678;2023-04-25T07:11:05;12.88;;;2.20;;
65373;SDS011;52070;53.760;9.678;2023-04-25T07:13:32;13.07;;;2.13;;
65373;SDS011;52070;53.760;9.678;2023-04-25T07:15:59;12.20;;;1.80;;
65373;SDS011;52070;53.760;9.678;2023-04-25T07:18:26;15.25;;;2.17;;
65373;SDS011;52070;53.760;9.678;2023-04-25T07:20:53;15.68;;;1.92;;
65373;SDS011;52070;53.760;9.678;2023-04-25T07:23:22;11.63;;;1.80;;
65373;SDS011;52070;53.760;9.678;2023-04-25T07:25:49;18.55;;;2.10;;
65373;SDS011;52070;53.760;9.678;2023-04-25T07:28:16;16.08;;;2.03;;
65373;SDS011;52070;53.760;9.678;2023-04-25T07:30:43;15.25;;;2.75;;
65373;SDS011;52070;53.760;9.678;2023-04-25T07:33:10;12.50;;;2.13;;
65373;SDS011;52070;53.760;9.678;2023-04-25T07:35:37;12.18;;;1.83;;
65373;SDS011;52070;53.760;9.678;2023-04-25T07:38:04;20.42;;;2.75;;
65373;SDS011;52070;53.760;9.678;2023-04-25T07:40:33;16.17;;;2.58;;
65373;SDS011;52070;53.760;9.678;2023-04-25T07:43:00;11.45;;;2.03;;
65373;SDS011;52070;53.760;9.678;2023-04-25T07:45:27;17.17;;;2.70;;
65373;SDS011;52070;53.760;9.678;2023-04-25T07:47:54;8.18;;;1.60;;
65373;SDS011;52070;53.760;9.678;2023-04-25T07:50:21;13.05;;;2.22;;
65373;SDS011;52070;53.760;9.678;2023-04-25T07:52:48;11.50;;;1.85;;
65373;SDS011;52070;53.760;9.678;2023-04-25T07:55:15;15.45;;;1.75;;
65373;SDS011;52070;53.760;9.678;2023-04-25T07:57:44;17.52;;;2.30;;
65373;SDS011;52070;53.760;9.678;2023-04-25T08:00:11;13.85;;;2.13;;
65373;SDS011;52070;53.760;9.678;2023-04-25T08:02:40;16.75;;;1.90;;
65373;SDS011;52070;53.760;9.678;2023-04-25T08:05:07;19.10;;;2.38;;
65373;SDS011;52070;53.760;9.678;2023-04-25T08:07:37;14.07;;;1.93;;
65373;SDS011;52070;53.760;9.678;2023-04-25T08:10:04;20.17;;;2.05;;
65373;SDS011;52070;53.760;9.678;2023-04-25T08:12:32;13.25;;;1.90;;
65373;SDS011;52070;53.760;9.678;2023-04-25T08:15:01;14.10;;;2.30;;
65373;SDS011;52070;53.760;9.678;2023-04-25T08:17:28;14.73;;;1.95;;
65373;SDS011;52070;53.760;9.678;2023-04-25T08:19:55;9.18;;;1.60;;
65373;SDS011;52070;53.760;9.678;2023-04-25T08:22:22;12.07;;;2.50;;
65373;SDS011;52070;53.760;9.678;2023-04-25T08:24:49;12.88;;;2.03;;
65373;SDS011;52070;53.760;9.678;2023-04-25T08:27:16;13.38;;;1.95;;
65373;SDS011;52070;53.760;9.678;2023-04-25T08:29:46;15.15;;;1.80;;
65373;SDS011;52070;53.760;9.678;2023-04-25T08:32:14;7.07;;;1.58;;
65373;SDS011;52070;53.760;9.678;2023-04-25T08:34:41;9.80;;;1.75;;
65373;SDS011;52070;53.760;9.678;2023-04-25T08:37:09;13.85;;;2.20;;
65373;SDS011;52070;53.760;9.678;2023-04-25T08:39:36;9.50;;;1.75;;
65373;SDS011;52070;53.760;9.678;2023-04-25T08:42:05;11.75;;;1.75;;
65373;SDS011;52070;53.760;9.678;2023-04-25T08:44:33;12.43;;;1.52;;
65373;SDS011;52070;53.760;9.678;2023-04-25T08:47:00;15.00;;;1.90;;
65373;SDS011;52070;53.760;9.678;2023-04-25T08:49:30;8.80;;;1.60;;
65373;SDS011;52070;53.760;9.678;2023-04-25T08:51:59;9.68;;;1.38;;
65373;SDS011;52070;53.760;9.678;2023-04-25T08:54:27;10.30;;;1.85;;
65373;SDS011;52070;53.760;9.678;2023-04-25T08:56:56;12.38;;;1.75;;
65373;SDS011;52070;53.760;9.678;2023-04-25T08:59:24;24.10;;;2.75;;
65373;SDS011;52070;53.760;9.678;2023-04-25T09:01:52;13.57;;;1.88;;
65373;SDS011;52070;53.760;9.678;2023-04-25T09:04:19;14.23;;;1.50;;
65373;SDS011;52070;53.760;9.678;2023-04-25T09:06:47;12.43;;;1.65;;
65373;SDS011;52070;53.760;9.678;2023-04-25T09:09:14;10.93;;;1.67;;
65373;SDS011;52070;53.760;9.678;2023-04-25T09:11:41;16.60;;;1.83;;
65373;SDS011;52070;53.760;9.678;2023-04-25T09:14:12;10.75;;;1.83;;
65373;SDS011;52070;53.760;9.678;2023-04-25T09:16:59;12.02;;;1.50;;
65373;SDS011;52070;53.760;9.678;2023-04-25T09:19:28;10.55;;;2.42;;
65373;SDS011;52070;53.760;9.678;2023-04-25T09:21:58;12.63;;;1.77;;
65373;SDS011;52070;53.760;9.678;2023-04-25T09:26:57;7.32;;;1.27;;
65373;SDS011;52070;53.760;9.678;2023-04-25T09:29:28;14.90;;;1.48;;
65373;SDS011;52070;53.760;9.678;2023-04-25T09:32:04;7.40;;;1.20;;
65373;SDS011;52070;53.760;9.678;2023-04-25T09:34:41;10.55;;;1.33;;
65373;SDS011;52070;53.760;9.678;2023-04-25T09:37:11;6.20;;;1.60;;
65373;SDS011;52070;53.760;9.678;2023-04-25T09:39:38;8.73;;;1.40;;
65373;SDS011;52070;53.760;9.678;2023-04-25T09:42:05;8.70;;;1.45;;
65373;SDS011;52070;53.760;9.678;2023-04-25T09:44:32;8.38;;;1.00;;
65373;SDS011;52070;53.760;9.678;2023-04-25T09:46:59;10.95;;;1.33;;
65373;SDS011;52070;53.760;9.678;2023-04-25T09:49:27;3.47;;;1.27;;
65373;SDS011;52070;53.760;9.678;2023-04-25T09:51:55;8.73;;;1.63;;
65373;SDS011;52070;53.760;9.678;2023-04-25T09:54:24;10.68;;;1.80;;
65373;SDS011;52070;53.760;9.678;2023-04-25T09:56:51;9.20;;;1.88;;
65373;SDS011;52070;53.760;9.678;2023-04-25T09:59:20;10.82;;;2.03;;
65373;SDS011;52070;53.760;9.678;2023-04-25T10:01:48;14.70;;;1.65;;
65373;SDS011;52070;53.760;9.678;2023-04-25T10:04:18;11.73;;;2.05;;
65373;SDS011;52070;53.760;9.678;2023-04-25T10:06:49;13.73;;;1.52;;
65373;SDS011;52070;53.760;9.678;2023-04-25T10:09:18;12.02;;;1.48;;
65373;SDS011;52070;53.760;9.678;2023-04-25T10:11:48;13.02;;;1.75;;
65373;SDS011;52070;53.760;9.678;2023-04-25T10:14:16;8.63;;;1.45;;
65373;SDS011;52070;53.760;9.678;2023-04-25T10:16:45;16.08;;;1.52;;
65373;SDS011;52070;53.760;9.678;2023-04-25T10:19:13;6.68;;;1.10;;
65373;SDS011;52070;53.760;9.678;2023-04-25T10:21:44;11.93;;;1.52;;
65373;SDS011;52070;53.760;9.678;2023-04-25T10:24:15;8.82;;;2.40;;
65373;SDS011;52070;53.760;9.678;2023-04-25T10:26:42;7.68;;;1.38;;
65373;SDS011;52070;53.760;9.678;2023-04-25T10:29:10;12.45;;;1.65;;
65373;SDS011;52070;53.760;9.678;2023-04-25T10:31:44;13.30;;;2.00;;
65373;SDS011;52070;53.760;9.678;2023-04-25T10:34:12;16.42;;;2.10;;
65373;SDS011;52070;53.760;9.678;2023-04-25T10:36:39;10.95;;;1.65;;
65373;SDS011;52070;53.760;9.678;2023-04-25T10:39:06;15.60;;;2.05;;
65373;SDS011;52070;53.760;9.678;2023-04-25T10:41:45;18.88;;;2.30;;
65373;SDS011;52070;53.760;9.678;2023-04-25T10:44:14;9.65;;;1.55;;
65373;SDS011;52070;53.760;9.678;2023-04-25T10:46:41;5.20;;;1.27;;
65373;SDS011;52070;53.760;9.678;2023-04-25T10:49:11;9.00;;;1.90;;
65373;SDS011;52070;53.760;9.678;2023-04-25T10:52:10;6.13;;;0.80;;
65373;SDS011;52070;53.760;9.678;2023-04-25T10:54:40;6.53;;;1.17;;
65373;SDS011;52070;53.760;9.678;2023-04-25T10:57:07;5.30;;;0.95;;
65373;SDS011;52070;53.760;9.678;2023-04-25T10:59:54;7.10;;;1.42;;
65373;SDS011;52070;53.760;9.678;2023-04-25T11:02:25;11.90;;;1.60;;
65373;SDS011;52070;53.760;9.678;2023-04-25T11:04:53;7.60;;;1.40;;
65373;SDS011;52070;53.760;9.678;2023-04-25T11:07:22;10.82;;;2.38;;
65373;SDS011;52070;53.760;9.678;2023-04-25T11:10:00;12.43;;;1.73;;
65373;SDS011;52070;53.760;9.678;2023-04-25T11:12:29;6.68;;;1.20;;
65373;SDS011;52070;53.760;9.678;2023-04-25T11:15:01;12.57;;;1.60;;
65373;SDS011;52070;53.760;9.678;2023-04-25T11:17:30;8.57;;;1.48;;
65373;SDS011;52070;53.760;9.678;2023-04-25T11:19:57;10.38;;;1.80;;
65373;SDS011;52070;53.760;9.678;2023-04-25T11:22:24;7.15;;;1.05;;
65373;SDS011;52070;53.760;9.678;2023-04-25T11:24:52;9.15;;;1.15;;
65373;SDS011;52070;53.760;9.678;2023-04-25T11:27:19;13.07;;;1.35;;
65373;SDS011;52070;53.760;9.678;2023-04-25T11:29:50;9.15;;;1.33;;
65373;SDS011;52070;53.760;9.678;2023-04-25T11:32:18;8.60;;;1.25;;
65373;SDS011;52070;53.760;9.678;2023-04-25T11:34:46;11.57;;;1.30;;
65373;SDS011;52070;53.760;9.678;2023-04-25T11:37:13;9.98;;;1.45;;
65373;SDS011;52070;53.760;9.678;2023-04-25T11:39:43;7.00;;;1.30;;
65373;SDS011;52070;53.760;9.678;2023-04-25T11:42:12;8.63;;;1.40;;
65373;SDS011;52070;53.760;9.678;2023-04-25T11:44:39;12.70;;;1.70;;
65373;SDS011;52070;53.760;9.678;2023-04-25T11:47:07;11.07;;;1.65;;
65373;SDS011;52070;53.760;9.678;2023-04-25T11:49:35;7.70;;;1.52;;
65373;SDS011;52070;53.760;9.678;2023-04-25T11:52:02;7.95;;;1.20;;
65373;SDS011;52070;53.760;9.678;2023-04-25T11:54:29;7.97;;;1.23;;
65373;SDS011;52070;53.760;9.678;2023-04-25T11:56:56;8.27;;;1.60;;
65373;SDS011;52070;53.760;9.678;2023-04-25T11:59:24;4.55;;;1.33;;
65373;SDS011;52070;53.760;9.678;2023-04-25T12:01:52;7.28;;;1.35;;
65373;SDS011;52070;53.760;9.678;2023-04-25T12:04:20;6.18;;;1.10;;
65373;SDS011;52070;53.760;9.678;2023-04-25T12:06:49;10.90;;;1.85;;
65373;SDS011;52070;53.760;9.678;2023-04-25T12:09:19;8.35;;;1.42;;
65373;SDS011;52070;53.760;9.678;2023-04-25T12:11:47;7.72;;;1.30;;
65373;SDS011;52070;53.760;9.678;2023-04-25T12:14:21;9.50;;;1.48;;
65373;SDS011;52070;53.760;9.678;2023-04-25T12:16:49;10.60;;;1.42;;
65373;SDS011;52070;53.760;9.678;2023-04-25T12:19:17;11.48;;;1.60;;
65373;SDS011;52070;53.760;9.678;2023-04-25T12:21:45;12.35;;;1.60;;
65373;SDS011;52070;53.760;9.678;2023-04-25T12:24:14;11.23;;;1.52;;
65373;SDS011;52070;53.760;9.678;2023-04-25T12:26:45;11.95;;;1.67;;
65373;SDS011;52070;53.760;9.678;2023-04-25T12:29:17;7.88;;;1.30;;
65373;SDS011;52070;53.760;9.678;2023-04-25T12:31:45;8.93;;;1.40;;
65373;SDS011;52070;53.760;9.678;2023-04-25T12:34:13;8.23;;;1.58;;
65373;SDS011;52070;53.760;9.678;2023-04-25T12:36:40;11.10;;;1.40;;
65373;SDS011;52070;53.760;9.678;2023-04-25T12:39:07;7.22;;;1.42;;
65373;SDS011;52070;53.760;9.678;2023-04-25T12:41:35;5.53;;;1.30;;
65373;SDS011;52070;53.760;9.678;2023-04-25T12:44:03;8.27;;;1.30;;
65373;SDS011;52070;53.760;9.678;2023-04-25T12:46:30;8.00;;;1.63;;
65373;SDS011;52070;53.760;9.678;2023-04-25T12:48:57;21.58;;;2.55;;
65373;SDS011;52070;53.760;9.678;2023-04-25T12:51:24;10.80;;;1.90;;
65373;SDS011;52070;53.760;9.678;2023-04-25T12:53:53;14.02;;;1.90;;
65373;SDS011;52070;53.760;9.678;2023-04-25T12:56:20;8.85;;;2.38;;
65373;SDS011;52070;53.760;9.678;2023-04-25T12:58:48;11.07;;;2.20;;
65373;SDS011;52070;53.760;9.678;2023-04-25T13:01:15;9.63;;;1.83;;
65373;SDS011;52070;53.760;9.678;2023-04-25T13:03:42;15.88;;;2.00;;
65373;SDS011;52070;53.760;9.678;2023-04-25T13:06:09;11.82;;;1.50;;
65373;SDS011;52070;53.760;9.678;2023-04-25T13:08:39;9.02;;;1.80;;
65373;SDS011;52070;53.760;9.678;2023-04-25T13:11:06;12.32;;;1.75;;
65373;SDS011;52070;53.760;9.678;2023-04-25T13:13:34;12.73;;;1.98;;
65373;SDS011;52070;53.760;9.678;2023-04-25T13:16:02;13.00;;;1.80;;
65373;SDS011;52070;53.760;9.678;2023-04-25T13:18:30;12.70;;;1.40;;
65373;SDS011;52070;53.760;9.678;2023-04-25T13:20:57;9.85;;;1.60;;
65373;SDS011;52070;53.760;9.678;2023-04-25T13:23:27;13.80;;;2.15;;
65373;SDS011;52070;53.760;9.678;2023-04-25T13:25:56;19.02;;;1.90;;
65373;SDS011;52070;53.760;9.678;2023-04-25T13:28:23;5.80;;;1.17;;
65373;SDS011;52070;53.760;9.678;2023-04-25T13:30:50;8.25;;;1.15;;
65373;SDS011;52070;53.760;9.678;2023-04-25T13:33:19;8.68;;;1.23;;
65373;SDS011;52070;53.760;9.678;2023-04-25T13:35:47;5.28;;;1.05;;
65373;SDS011;52070;53.760;9.678;2023-04-25T13:38:19;7.72;;;1.90;;
65373;SDS011;52070;53.760;9.678;2023-04-25T13:40:47;5.68;;;1.20;;
65373;SDS011;52070;53.760;9.678;2023-04-25T13:43:15;5.57;;;1.60;;
65373;SDS011;52070;53.760;9.678;2023-04-25T13:45:42;10.65;;;1.58;;
65373;SDS011;52070;53.760;9.678;2023-04-25T13:48:09;8.13;;;1.30;;
65373;SDS011;52070;53.760;9.678;2023-04-25T13:50:37;8.48;;;1.80;;
65373;SDS011;52070;53.760;9.678;2023-04-25T13:53:04;8.00;;;1.48;;
65373;SDS011;52070;53.760;9.678;2023-04-25T13:55:31;8.13;;;1.40;;
65373;SDS011;52070;53.760;9.678;2023-04-25T13:57:58;11.60;;;1.83;;
65373;SDS011;52070;53.760;9.678;2023-04-25T14:00:25;6.47;;;1.25;;
65373;SDS011;52070;53.760;9.678;2023-04-25T14:02:52;10.93;;;1.77;;
65373;SDS011;52070;53.760;9.678;2023-04-25T14:05:19;12.88;;;1.42;;
65373;SDS011;52070;53.760;9.678;2023-04-25T14:07:47;13.27;;;1.40;;
65373;SDS011;52070;53.760;9.678;2023-04-25T14:10:14;10.18;;;1.63;;
65373;SDS011;52070;53.760;9.678;2023-04-25T14:12:41;7.95;;;1.40;;
65373;SDS011;52070;53.760;9.678;2023-04-25T14:15:08;7.97;;;1.80;;
65373;SDS011;52070;53.760;9.678;2023-04-25T14:17:36;9.20;;;1.40;;
65373;SDS011;52070;53.760;9.678;2023-04-25T14:20:03;12.70;;;1.45;;
65373;SDS011;52070;53.760;9.678;2023-04-25T14:22:33;12.23;;;1.80;;
65373;SDS011;52070;53.760;9.678;2023-04-25T14:25:01;8.77;;;1.50;;
65373;SDS011;52070;53.760;9.678;2023-04-25T14:27:28;14.07;;;1.75;;
65373;SDS011;52070;53.760;9.678;2023-04-25T14:29:55;8.88;;;1.60;;
65373;SDS011;52070;53.760;9.678;2023-04-25T14:32:22;11.65;;;1.58;;
65373;SDS011;52070;53.760;9.678;2023-04-25T14:34:49;10.25;;;1.60;;
65373;SDS011;52070;53.760;9.678;2023-04-25T14:37:16;5.80;;;1.50;;
65373;SDS011;52070;53.760;9.678;2023-04-25T14:39:43;5.50;;;1.20;;
65373;SDS011;52070;53.760;9.678;2023-04-25T14:42:11;7.90;;;1.38;;
65373;SDS011;52070;53.760;9.678;2023-04-25T14:44:38;9.68;;;1.40;;